createdAt,value
2018-02-04T00:02:55.000Z,1003.427
2018-02-04T00:12:56.000Z,1003.565
2018-02-04T00:22:55.000Z,1003.679
2018-02-04T00:32:55.000Z,1003.731
2018-02-04T00:42:55.000Z,1003.951
2018-02-04T00:52:55.000Z,1004.034
2018-02-04T01:02:55.000Z,1004.228
2018-02-04T01:12:55.000Z,1004.337
2018-02-04T01:22:55.000Z,1004.54
2018-02-04T01:32:55.000Z,1004.695
2018-02-04T01:42:55.000Z,1004.809
2018-02-04T01:52:55.000Z,1004.808
2018-02-04T02:02:55.000Z,1004.893
2018-02-04T02:12:55.000Z,1004.934
2018-02-04T02:22:55.000Z,1004.996
2018-02-04T02:32:55.000Z,1005.051
2018-02-04T02:42:55.000Z,1005.189
2018-02-04T02:52:55.000Z,1005.366
2018-02-04T03:02:55.000Z,1005.56
2018-02-04T03:12:55.000Z,1005.643
2018-02-04T03:22:55.000Z,1005.788
2018-02-04T03:32:55.000Z,1005.887
2018-02-04T03:42:55.000Z,1006.102
2018-02-04T03:52:55.000Z,1006.223
2018-02-04T04:02:55.000Z,1006.305
2018-02-04T04:12:55.000Z,1006.465
2018-02-04T04:22:55.000Z,1006.634
2018-02-04T04:32:55.000Z,1006.772
2018-02-04T04:42:55.000Z,1006.847
2018-02-04T04:52:55.000Z,1006.988
2018-02-04T05:02:55.000Z,1007.106
2018-02-04T05:12:55.000Z,1007.03
2018-02-04T05:22:55.000Z,1007.089
2018-02-04T05:32:55.000Z,1007.21
2018-02-04T05:42:55.000Z,1007.35
2018-02-04T05:52:55.000Z,1007.536
2018-02-04T06:02:55.000Z,1007.673
2018-02-04T06:12:55.000Z,1007.741
2018-02-04T06:22:56.000Z,1007.77
2018-02-04T06:32:55.000Z,1007.9
2018-02-04T06:42:55.000Z,1008.066
2018-02-04T06:52:55.000Z,1008.21
2018-02-04T07:02:55.000Z,1008.343
2018-02-04T07:12:55.000Z,1008.502
2018-02-04T07:22:55.000Z,1008.593
2018-02-04T07:32:56.000Z,1008.759
2018-02-04T07:42:56.000Z,1008.93
2018-02-04T07:52:56.000Z,1009.156
2018-02-04T08:02:56.000Z,1009.279
2018-02-04T08:12:56.000Z,1009.484
2018-02-04T08:22:56.000Z,1009.691
2018-02-04T08:32:56.000Z,1009.843
2018-02-04T08:42:56.000Z,1009.993
2018-02-04T08:52:56.000Z,1010.122
2018-02-04T09:02:56.000Z,1010.314
2018-02-04T09:12:56.000Z,1010.49
2018-02-04T09:22:56.000Z,1010.665
2018-02-04T09:32:56.000Z,1010.758
2018-02-04T09:42:56.000Z,1011.036
2018-02-04T09:52:56.000Z,1011.19
2018-02-04T10:02:56.000Z,1011.391
2018-02-04T10:12:56.000Z,1011.607
2018-02-04T10:22:56.000Z,1011.758
2018-02-04T10:32:56.000Z,1011.921
2018-02-04T10:42:56.000Z,1011.995
2018-02-04T10:52:56.000Z,1012.121
2018-02-04T11:02:56.000Z,1012.285
2018-02-04T11:12:56.000Z,1012.398
2018-02-04T11:22:56.000Z,1012.548
2018-02-04T11:32:58.000Z,1012.729
2018-02-04T11:42:56.000Z,1012.901
2018-02-04T11:52:56.000Z,1013.085
2018-02-04T12:02:56.000Z,1013.13
2018-02-04T12:12:56.000Z,1013.113
2018-02-04T12:22:56.000Z,1013.144
2018-02-04T12:32:56.000Z,1013.261
2018-02-04T12:42:57.000Z,1013.412
2018-02-04T12:52:56.000Z,1013.405
2018-02-04T13:02:56.000Z,1013.463
2018-02-04T13:12:56.000Z,1013.522
2018-02-04T13:22:56.000Z,1013.549
2018-02-04T13:32:56.000Z,1013.519
2018-02-04T13:42:56.000Z,1013.599
2018-02-04T13:52:56.000Z,1013.667
2018-02-04T14:02:56.000Z,1013.895
2018-02-04T14:12:56.000Z,1013.922
2018-02-04T14:22:56.000Z,1013.927
2018-02-04T14:32:56.000Z,1014.091
2018-02-04T14:42:56.000Z,1014.258
2018-02-04T14:52:56.000Z,1014.338
2018-02-04T15:02:56.000Z,1014.367
2018-02-04T15:12:59.000Z,1014.557
2018-02-04T15:22:56.000Z,1014.758
2018-02-04T15:32:56.000Z,1014.846
2018-02-04T15:42:56.000Z,1014.908
2018-02-04T15:52:57.000Z,1015.124
2018-02-04T16:02:57.000Z,1015.15
2018-02-04T16:12:57.000Z,1015.2
2018-02-04T16:22:57.000Z,1015.379
2018-02-04T16:32:57.000Z,1015.382
2018-02-04T16:42:57.000Z,1015.345
2018-02-04T16:52:57.000Z,1015.459
2018-02-04T17:02:57.000Z,1015.464
2018-02-04T17:12:57.000Z,1015.626
2018-02-04T17:22:57.000Z,1015.745
2018-02-04T17:32:57.000Z,1015.839
2018-02-04T17:42:57.000Z,1015.967
2018-02-04T17:52:58.000Z,1016.007
2018-02-04T18:02:59.000Z,1016.185
2018-02-04T18:12:57.000Z,1016.26
2018-02-04T18:22:57.000Z,1016.455
2018-02-04T18:32:57.000Z,1016.502
2018-02-04T18:42:57.000Z,1016.646
2018-02-04T18:52:57.000Z,1016.8
2018-02-04T19:02:57.000Z,1016.976
2018-02-04T19:12:57.000Z,1017.057
2018-02-04T19:22:57.000Z,1017.038
2018-02-04T19:32:57.000Z,1017.042
2018-02-04T19:42:57.000Z,1017.167
2018-02-04T19:52:59.000Z,1017.285
2018-02-04T20:02:57.000Z,1017.365
2018-02-04T20:12:57.000Z,1017.444
2018-02-04T20:22:57.000Z,1017.495
2018-02-04T20:32:57.000Z,1017.517
2018-02-04T20:42:57.000Z,1017.542
2018-02-04T20:52:57.000Z,1017.613
2018-02-04T21:02:57.000Z,1017.724
2018-02-04T21:12:57.000Z,1017.788
2018-02-04T21:22:57.000Z,1017.887
2018-02-04T21:32:57.000Z,1018.038
2018-02-04T21:42:57.000Z,1018.15
2018-02-04T21:52:57.000Z,1018.282
2018-02-04T22:02:59.000Z,1018.326
2018-02-04T22:12:57.000Z,1018.395
2018-02-04T22:22:57.000Z,1018.438
2018-02-04T22:32:57.000Z,1018.412
2018-02-04T22:42:57.000Z,1018.431
2018-02-04T22:52:57.000Z,1018.504
2018-02-04T23:02:57.000Z,1018.544
2018-02-04T23:12:57.000Z,1018.573
2018-02-04T23:22:57.000Z,1018.501
2018-02-04T23:32:57.000Z,1018.551
2018-02-04T23:42:58.000Z,1018.62
2018-02-04T23:52:57.000Z,1018.687
